sensor_id;sensor_type;location;lat;lon;timestamp;temperature;humidity
5806;DHT22;2929;50.810;8.342;2023-08-01T00:00:26;15.70;99.90
5806;DHT22;2929;50.810;8.342;2023-08-01T00:02:54;15.70;99.90
5806;DHT22;2929;50.810;8.342;2023-08-01T00:05:21;15.60;99.90
5806;DHT22;2929;50.810;8.342;2023-08-01T00:07:48;15.70;99.90
5806;DHT22;2929;50.810;8.342;2023-08-01T00:10:15;15.60;99.90
5806;DHT22;2929;50.810;8.342;2023-08-01T00:12:42;15.60;99.90
5806;DHT22;2929;50.810;8.342;2023-08-01T00:15:10;15.60;99.90
5806;DHT22;2929;50.810;8.342;2023-08-01T00:17:37;15.70;99.90
5806;DHT22;2929;50.810;8.342;2023-08-01T00:20:07;15.70;99.90
5806;DHT22;2929;50.810;8.342;2023-08-01T00:22:34;15.60;99.90
5806;DHT22;2929;50.810;8.342;2023-08-01T00:25:01;15.60;99.90
5806;DHT22;2929;50.810;8.342;2023-08-01T00:27:28;15.60;99.90
5806;DHT22;2929;50.810;8.342;2023-08-01T00:29:55;15.60;99.90
5806;DHT22;2929;50.810;8.342;2023-08-01T00:32:22;15.60;99.90
5806;DHT22;2929;50.810;8.342;2023-08-01T00:34:50;15.60;99.90
5806;DHT22;2929;50.810;8.342;2023-08-01T00:37:19;15.60;99.90
5806;DHT22;2929;50.810;8.342;2023-08-01T00:39:45;15.60;99.90
5806;DHT22;2929;50.810;8.342;2023-08-01T00:42:13;15.50;99.90
5806;DHT22;2929;50.810;8.342;2023-08-01T00:44:40;15.60;99.90
5806;DHT22;2929;50.810;8.342;2023-08-01T00:47:07;15.60;99.90
5806;DHT22;2929;50.810;8.342;2023-08-01T00:49:34;15.60;99.90
5806;DHT22;2929;50.810;8.342;2023-08-01T00:52:02;15.60;99.90
5806;DHT22;2929;50.810;8.342;2023-08-01T00:54:30;15.60;99.90
5806;DHT22;2929;50.810;8.342;2023-08-01T00:57:02;15.60;99.90
5806;DHT22;2929;50.810;8.342;2023-08-01T00:59:29;15.60;99.90
5806;DHT22;2929;50.810;8.342;2023-08-01T01:01:56;15.60;99.90
5806;DHT22;2929;50.810;8.342;2023-08-01T01:04:23;15.60;99.90
5806;DHT22;2929;50.810;8.342;2023-08-01T01:06:56;15.50;99.90
5806;DHT22;2929;50.810;8.342;2023-08-01T01:09:24;15.50;99.90
5806;DHT22;2929;50.810;8.342;2023-08-01T01:11:52;15.40;99.90
5806;DHT22;2929;50.810;8.342;2023-08-01T01:14:19;15.40;99.90
5806;DHT22;2929;50.810;8.342;2023-08-01T01:16:46;15.40;99.90
5806;DHT22;2929;50.810;8.342;2023-08-01T01:19:13;15.40;99.90
5806;DHT22;2929;50.810;8.342;2023-08-01T01:21:43;15.40;99.90
5806;DHT22;2929;50.810;8.342;2023-08-01T01:24:13;15.40;99.90
5806;DHT22;2929;50.810;8.342;2023-08-01T01:26:41;15.30;99.90
5806;DHT22;2929;50.810;8.342;2023-08-01T01:29:09;15.40;99.90
5806;DHT22;2929;50.810;8.342;2023-08-01T01:31:37;15.30;99.90
5806;DHT22;2929;50.810;8.342;2023-08-01T01:34:05;15.30;99.90
5806;DHT22;2929;50.810;8.342;2023-08-01T01:36:32;15.40;99.90
5806;DHT22;2929;50.810;8.342;2023-08-01T01:39:01;15.40;99.90
5806;DHT22;2929;50.810;8.342;2023-08-01T01:41:28;15.30;99.90
5806;DHT22;2929;50.810;8.342;2023-08-01T01:43:55;15.30;99.90
5806;DHT22;2929;50.810;8.342;2023-08-01T01:46:22;15.30;99.90
5806;DHT22;2929;50.810;8.342;2023-08-01T01:48:49;15.30;99.90
5806;DHT22;2929;50.810;8.342;2023-08-01T01:51:16;15.30;99.90
5806;DHT22;2929;50.810;8.342;2023-08-01T01:53:43;15.30;99.90
5806;DHT22;2929;50.810;8.342;2023-08-01T01:56:11;15.30;99.90
5806;DHT22;2929;50.810;8.342;2023-08-01T01:58:39;15.30;99.90
5806;DHT22;2929;50.810;8.342;2023-08-01T02:01:06;15.30;99.90
5806;DHT22;2929;50.810;8.342;2023-08-01T02:03:33;15.30;99.90
5806;DHT22;2929;50.810;8.342;2023-08-01T02:06:01;15.30;99.90
5806;DHT22;2929;50.810;8.342;2023-08-01T02:08:28;15.30;99.90
5806;DHT22;2929;50.810;8.342;2023-08-01T02:10:55;15.30;99.90
5806;DHT22;2929;50.810;8.342;2023-08-01T02:13:25;15.30;99.90
5806;DHT22;2929;50.810;8.342;2023-08-01T02:15:53;15.30;99.90
5806;DHT22;2929;50.810;8.342;2023-08-01T02:18:21;15.30;99.90
5806;DHT22;2929;50.810;8.342;2023-08-01T02:20:48;15.40;99.90
5806;DHT22;2929;50.810;8.342;2023-08-01T02:23:15;15.40;99.90
5806;DHT22;2929;50.810;8.342;2023-08-01T02:25:42;15.40;99.90
5806;DHT22;2929;50.810;8.342;2023-08-01T02:28:09;15.30;99.90
5806;DHT22;2929;50.810;8.342;2023-08-01T02:30:37;15.40;99.90
5806;DHT22;2929;50.810;8.342;2023-08-01T02:33:04;15.40;99.90
5806;DHT22;2929;50.810;8.342;2023-08-01T02:35:32;15.50;99.90
5806;DHT22;2929;50.810;8.342;2023-08-01T02:37:59;15.40;99.90
5806;DHT22;2929;50.810;8.342;2023-08-01T02:40:28;15.50;99.90
5806;DHT22;2929;50.810;8.342;2023-08-01T02:42:55;15.50;99.90
5806;DHT22;2929;50.810;8.342;2023-08-01T02:45:22;15.50;99.90
5806;DHT22;2929;50.810;8.342;2023-08-01T02:47:50;15.50;99.90
5806;DHT22;2929;50.810;8.342;2023-08-01T02:50:17;15.50;99.90
5806;DHT22;2929;50.810;8.342;2023-08-01T02:52:44;15.50;99.90
5806;DHT22;2929;50.810;8.342;2023-08-01T02:55:11;15.40;99.90
5806;DHT22;2929;50.810;8.342;2023-08-01T02:57:38;15.40;99.90
5806;DHT22;2929;50.810;8.342;2023-08-01T03:00:06;15.60;99.90
5806;DHT22;2929;50.810;8.342;2023-08-01T03:02:37;15.50;99.90
5806;DHT22;2929;50.810;8.342;2023-08-01T03:05:08;15.50;99.90
5806;DHT22;2929;50.810;8.342;2023-08-01T03:07:35;15.50;99.90
5806;DHT22;2929;50.810;8.342;2023-08-01T03:10:02;15.50;99.90
5806;DHT22;2929;50.810;8.342;2023-08-01T03:12:29;15.50;99.90
5806;DHT22;2929;50.810;8.342;2023-08-01T03:14:56;15.50;99.90
5806;DHT22;2929;50.810;8.342;2023-08-01T03:17:23;15.50;99.90
5806;DHT22;2929;50.810;8.342;2023-08-01T03:19:50;15.50;99.90
5806;DHT22;2929;50.810;8.342;2023-08-01T03:22:19;15.50;99.90
5806;DHT22;2929;50.810;8.342;2023-08-01T03:24:45;15.50;99.90
5806;DHT22;2929;50.810;8.342;2023-08-01T03:27:12;15.50;99.90
5806;DHT22;2929;50.810;8.342;2023-08-01T03:29:40;15.50;99.90
5806;DHT22;2929;50.810;8.342;2023-08-01T03:32:07;15.50;99.90
5806;DHT22;2929;50.810;8.342;2023-08-01T03:34:34;15.50;99.90
5806;DHT22;2929;50.810;8.342;2023-08-01T03:37:01;15.50;99.90
5806;DHT22;2929;50.810;8.342;2023-08-01T03:39:29;15.50;99.90
5806;DHT22;2929;50.810;8.342;2023-08-01T03:41:56;15.50;99.90
5806;DHT22;2929;50.810;8.342;2023-08-01T03:44:23;15.50;99.90
5806;DHT22;2929;50.810;8.342;2023-08-01T03:46:50;15.40;99.90
5806;DHT22;2929;50.810;8.342;2023-08-01T03:49:17;15.50;99.90
5806;DHT22;2929;50.810;8.342;2023-08-01T03:51:45;15.40;99.90
5806;DHT22;2929;50.810;8.342;2023-08-01T03:54:11;15.50;99.90
5806;DHT22;2929;50.810;8.342;2023-08-01T03:56:40;15.50;99.90
5806;DHT22;2929;50.810;8.342;2023-08-01T03:59:09;15.50;99.90
5806;DHT22;2929;50.810;8.342;2023-08-01T04:01:36;15.50;99.90
5806;DHT22;2929;50.810;8.342;2023-08-01T04:04:03;15.40;99.90
5806;DHT22;2929;50.810;8.342;2023-08-01T04:06:30;15.50;99.90
5806;DHT22;2929;50.810;8.342;2023-08-01T04:08:57;15.50;99.90
5806;DHT22;2929;50.810;8.342;2023-08-01T04:11:25;15.50;99.90
5806;DHT22;2929;50.810;8.342;2023-08-01T04:13:54;15.50;99.90
5806;DHT22;2929;50.810;8.342;2023-08-01T04:16:21;15.50;99.90
5806;DHT22;2929;50.810;8.342;2023-08-01T04:18:48;15.50;99.90
5806;DHT22;2929;50.810;8.342;2023-08-01T04:21:15;15.50;99.90
5806;DHT22;2929;50.810;8.342;2023-08-01T04:23:42;15.50;99.90
5806;DHT22;2929;50.810;8.342;2023-08-01T04:26:09;15.50;99.90
5806;DHT22;2929;50.810;8.342;2023-08-01T04:28:36;15.40;99.90
5806;DHT22;2929;50.810;8.342;2023-08-01T04:31:05;15.40;99.90
5806;DHT22;2929;50.810;8.342;2023-08-01T04:33:32;15.50;99.90
5806;DHT22;2929;50.810;8.342;2023-08-01T04:35:59;15.40;99.90
5806;DHT22;2929;50.810;8.342;2023-08-01T04:38:25;15.40;99.90
5806;DHT22;2929;50.810;8.342;2023-08-01T04:40:52;15.40;99.90
5806;DHT22;2929;50.810;8.342;2023-08-01T04:43:19;15.30;99.90
5806;DHT22;2929;50.810;8.342;2023-08-01T04:45:47;15.30;99.90
5806;DHT22;2929;50.810;8.342;2023-08-01T04:48:15;15.20;99.90
5806;DHT22;2929;50.810;8.342;2023-08-01T04:50:42;15.20;99.90
5806;DHT22;2929;50.810;8.342;2023-08-01T04:53:09;15.20;99.90
5806;DHT22;2929;50.810;8.342;2023-08-01T04:55:37;15.20;99.90
5806;DHT22;2929;50.810;8.342;2023-08-01T04:58:03;15.20;99.90
5806;DHT22;2929;50.810;8.342;2023-08-01T05:00:31;15.10;99.90
5806;DHT22;2929;50.810;8.342;2023-08-01T05:02:58;15.00;99.90
5806;DHT22;2929;50.810;8.342;2023-08-01T05:05:26;15.00;99.90
5806;DHT22;2929;50.810;8.342;2023-08-01T05:07:53;14.90;99.90
5806;DHT22;2929;50.810;8.342;2023-08-01T05:10:20;14.90;99.90
5806;DHT22;2929;50.810;8.342;2023-08-01T05:12:47;14.80;99.90
5806;DHT22;2929;50.810;8.342;2023-08-01T05:15:14;14.90;99.90
5806;DHT22;2929;50.810;8.342;2023-08-01T05:17:41;14.80;99.90
5806;DHT22;2929;50.810;8.342;2023-08-01T05:20:09;14.90;99.90
5806;DHT22;2929;50.810;8.342;2023-08-01T05:22:37;14.80;99.90
5806;DHT22;2929;50.810;8.342;2023-08-01T05:25:05;14.80;99.90
5806;DHT22;2929;50.810;8.342;2023-08-01T05:27:32;14.80;99.90
5806;DHT22;2929;50.810;8.342;2023-08-01T05:29:59;14.80;99.90
5806;DHT22;2929;50.810;8.342;2023-08-01T05:32:26;14.80;99.90
5806;DHT22;2929;50.810;8.342;2023-08-01T05:34:53;14.70;99.90
5806;DHT22;2929;50.810;8.342;2023-08-01T05:37:22;14.80;99.90
5806;DHT22;2929;50.810;8.342;2023-08-01T05:39:51;14.70;99.90
5806;DHT22;2929;50.810;8.342;2023-08-01T05:42:18;14.70;99.90
5806;DHT22;2929;50.810;8.342;2023-08-01T05:44:45;14.70;99.90
5806;DHT22;2929;50.810;8.342;2023-08-01T05:47:12;14.70;99.90
5806;DHT22;2929;50.810;8.342;2023-08-01T05:49:39;14.70;99.90
5806;DHT22;2929;50.810;8.342;2023-08-01T05:52:07;14.70;99.90
5806;DHT22;2929;50.810;8.342;2023-08-01T05:54:34;14.60;99.90
5806;DHT22;2929;50.810;8.342;2023-08-01T05:57:02;14.70;99.90
5806;DHT22;2929;50.810;8.342;2023-08-01T05:59:30;14.60;99.90
5806;DHT22;2929;50.810;8.342;2023-08-01T06:01:57;14.60;99.90
5806;DHT22;2929;50.810;8.342;2023-08-01T06:04:23;14.60;99.90
5806;DHT22;2929;50.810;8.342;2023-08-01T06:06:50;14.50;99.90
5806;DHT22;2929;50.810;8.342;2023-08-01T06:09:17;14.60;99.90
5806;DHT22;2929;50.810;8.342;2023-08-01T06:11:44;14.60;99.90
5806;DHT22;2929;50.810;8.342;2023-08-01T06:14:13;14.60;99.90
5806;DHT22;2929;50.810;8.342;2023-08-01T06:16:40;14.60;99.90
5806;DHT22;2929;50.810;8.342;2023-08-01T06:19:07;14.60;99.90
5806;DHT22;2929;50.810;8.342;2023-08-01T06:21:34;14.60;99.90
5806;DHT22;2929;50.810;8.342;2023-08-01T06:24:01;14.60;99.90
5806;DHT22;2929;50.810;8.342;2023-08-01T06:26:28;14.60;99.90
5806;DHT22;2929;50.810;8.342;2023-08-01T06:28:55;14.60;99.90
5806;DHT22;2929;50.810;8.342;2023-08-01T06:31:23;14.60;99.90
5806;DHT22;2929;50.810;8.342;2023-08-01T06:33:50;14.40;99.90
5806;DHT22;2929;50.810;8.342;2023-08-01T06:36:17;14.50;99.90
5806;DHT22;2929;50.810;8.342;2023-08-01T06:38:44;14.40;99.90
5806;DHT22;2929;50.810;8.342;2023-08-01T06:41:11;14.30;99.90
5806;DHT22;2929;50.810;8.342;2023-08-01T06:43:38;14.40;99.90
5806;DHT22;2929;50.810;8.342;2023-08-01T06:46:05;14.40;99.90
5806;DHT22;2929;50.810;8.342;2023-08-01T06:48:34;14.50;99.90
5806;DHT22;2929;50.810;8.342;2023-08-01T06:51:01;14.50;99.90
5806;DHT22;2929;50.810;8.342;2023-08-01T06:53:28;14.50;99.90
5806;DHT22;2929;50.810;8.342;2023-08-01T06:55:55;14.50;99.90
5806;DHT22;2929;50.810;8.342;2023-08-01T06:58:22;14.50;99.90
5806;DHT22;2929;50.810;8.342;2023-08-01T07:00:49;14.50;99.90
5806;DHT22;2929;50.810;8.342;2023-08-01T07:03:16;14.40;99.90
5806;DHT22;2929;50.810;8.342;2023-08-01T07:05:44;14.40;99.90
5806;DHT22;2929;50.810;8.342;2023-08-01T07:08:11;14.40;99.90
5806;DHT22;2929;50.810;8.342;2023-08-01T07:10:38;14.40;99.90
5806;DHT22;2929;50.810;8.342;2023-08-01T07:13:05;14.40;99.90
5806;DHT22;2929;50.810;8.342;2023-08-01T07:15:32;14.40;99.90
5806;DHT22;2929;50.810;8.342;2023-08-01T07:17:59;14.40;99.90
5806;DHT22;2929;50.810;8.342;2023-08-01T07:20:26;14.40;99.90
5806;DHT22;2929;50.810;8.342;2023-08-01T07:22:54;14.40;99.90
5806;DHT22;2929;50.810;8.342;2023-08-01T07:25:21;14.50;99.90
5806;DHT22;2929;50.810;8.342;2023-08-01T07:27:49;14.50;99.90
5806;DHT22;2929;50.810;8.342;2023-08-01T07:30:16;14.50;99.90
5806;DHT22;2929;50.810;8.342;2023-08-01T07:32:43;14.50;99.90
5806;DHT22;2929;50.810;8.342;2023-08-01T07:35:10;14.60;99.90
5806;DHT22;2929;50.810;8.342;2023-08-01T07:37:37;14.80;99.90
5806;DHT22;2929;50.810;8.342;2023-08-01T07:40:06;15.10;99.90
5806;DHT22;2929;50.810;8.342;2023-08-01T07:42:33;15.20;99.90
5806;DHT22;2929;50.810;8.342;2023-08-01T07:45:00;15.20;99.90
5806;DHT22;2929;50.810;8.342;2023-08-01T07:47:27;15.10;99.90
5806;DHT22;2929;50.810;8.342;2023-08-01T07:49:54;15.10;99.90
5806;DHT22;2929;50.810;8.342;2023-08-01T07:52:21;15.10;99.90
5806;DHT22;2929;50.810;8.342;2023-08-01T07:54:48;15.20;99.90
5806;DHT22;2929;50.810;8.342;2023-08-01T07:57:16;15.30;99.90
5806;DHT22;2929;50.810;8.342;2023-08-01T07:59:43;15.30;99.90
5806;DHT22;2929;50.810;8.342;2023-08-01T08:02:10;15.30;99.90
5806;DHT22;2929;50.810;8.342;2023-08-01T08:04:37;15.30;99.90
5806;DHT22;2929;50.810;8.342;2023-08-01T08:07:05;15.40;99.90
5806;DHT22;2929;50.810;8.342;2023-08-01T08:09:32;15.50;99.90
5806;DHT22;2929;50.810;8.342;2023-08-01T08:11:59;15.60;99.90
5806;DHT22;2929;50.810;8.342;2023-08-01T08:14:27;15.50;99.90
5806;DHT22;2929;50.810;8.342;2023-08-01T08:16:55;15.50;99.90
5806;DHT22;2929;50.810;8.342;2023-08-01T08:19:22;15.60;99.90
5806;DHT22;2929;50.810;8.342;2023-08-01T08:21:50;15.70;99.90
5806;DHT22;2929;50.810;8.342;2023-08-01T08:24:16;15.80;99.90
5806;DHT22;2929;50.810;8.342;2023-08-01T08:26:43;15.80;99.90
5806;DHT22;2929;50.810;8.342;2023-08-01T08:29:11;15.90;99.90
5806;DHT22;2929;50.810;8.342;2023-08-01T08:31:39;15.80;99.90
5806;DHT22;2929;50.810;8.342;2023-08-01T08:34:06;15.80;99.90
5806;DHT22;2929;50.810;8.342;2023-08-01T08:36:33;15.80;99.90
5806;DHT22;2929;50.810;8.342;2023-08-01T08:39:00;15.80;99.90
5806;DHT22;2929;50.810;8.342;2023-08-01T08:41:32;15.70;99.90
5806;DHT22;2929;50.810;8.342;2023-08-01T08:44:01;15.80;99.90
5806;DHT22;2929;50.810;8.342;2023-08-01T08:46:30;16.00;99.90
5806;DHT22;2929;50.810;8.342;2023-08-01T08:49:00;15.90;99.90
5806;DHT22;2929;50.810;8.342;2023-08-01T08:51:28;16.00;99.90
5806;DHT22;2929;50.810;8.342;2023-08-01T08:53:56;16.00;99.90
5806;DHT22;2929;50.810;8.342;2023-08-01T08:56:23;16.10;99.90
5806;DHT22;2929;50.810;8.342;2023-08-01T08:58:51;16.10;99.90
5806;DHT22;2929;50.810;8.342;2023-08-01T09:01:18;16.10;99.90
5806;DHT22;2929;50.810;8.342;2023-08-01T09:03:45;16.20;99.90
5806;DHT22;2929;50.810;8.342;2023-08-01T09:06:16;16.20;99.90
5806;DHT22;2929;50.810;8.342;2023-08-01T09:08:52;16.20;99.90
5806;DHT22;2929;50.810;8.342;2023-08-01T09:11:22;16.10;99.90
5806;DHT22;2929;50.810;8.342;2023-08-01T09:13:48;16.20;99.90
5806;DHT22;2929;50.810;8.342;2023-08-01T09:16:17;16.30;99.90
5806;DHT22;2929;50.810;8.342;2023-08-01T09:18:48;16.50;99.90
5806;DHT22;2929;50.810;8.342;2023-08-01T09:21:19;16.40;99.90
5806;DHT22;2929;50.810;8.342;2023-08-01T09:23:46;16.40;99.90
5806;DHT22;2929;50.810;8.342;2023-08-01T09:26:13;16.30;99.90
5806;DHT22;2929;50.810;8.342;2023-08-01T09:28:40;16.30;99.90
5806;DHT22;2929;50.810;8.342;2023-08-01T09:31:07;16.30;99.90
5806;DHT22;2929;50.810;8.342;2023-08-01T09:33:38;16.40;99.90
5806;DHT22;2929;50.810;8.342;2023-08-01T09:36:07;16.70;99.90
5806;DHT22;2929;50.810;8.342;2023-08-01T09:38:36;16.90;99.90
5806;DHT22;2929;50.810;8.342;2023-08-01T09:41:04;16.70;99.90
5806;DHT22;2929;50.810;8.342;2023-08-01T09:43:34;16.60;99.90
5806;DHT22;2929;50.810;8.342;2023-08-01T09:46:02;16.50;99.90
5806;DHT22;2929;50.810;8.342;2023-08-01T09:48:30;16.50;99.90
5806;DHT22;2929;50.810;8.342;2023-08-01T09:51:07;16.50;99.90
5806;DHT22;2929;50.810;8.342;2023-08-01T09:53:46;16.40;99.90
5806;DHT22;2929;50.810;8.342;2023-08-01T09:56:14;16.30;99.90
5806;DHT22;2929;50.810;8.342;2023-08-01T09:58:45;16.10;99.90
5806;DHT22;2929;50.810;8.342;2023-08-01T10:01:13;15.70;99.90
5806;DHT22;2929;50.810;8.342;2023-08-01T10:03:45;15.50;99.90
5806;DHT22;2929;50.810;8.342;2023-08-01T10:06:19;15.50;99.90
5806;DHT22;2929;50.810;8.342;2023-08-01T10:08:48;15.40;99.90
5806;DHT22;2929;50.810;8.342;2023-08-01T10:11:18;15.30;99.90
5806;DHT22;2929;50.810;8.342;2023-08-01T10:13:45;15.50;99.90
5806;DHT22;2929;50.810;8.342;2023-08-01T10:16:14;15.60;99.90
5806;DHT22;2929;50.810;8.342;2023-08-01T10:18:41;15.90;99.90
5806;DHT22;2929;50.810;8.342;2023-08-01T10:21:11;16.00;99.90
5806;DHT22;2929;50.810;8.342;2023-08-01T10:23:38;16.40;99.90
5806;DHT22;2929;50.810;8.342;2023-08-01T10:26:09;16.60;99.90
5806;DHT22;2929;50.810;8.342;2023-08-01T10:28:40;16.70;99.90
5806;DHT22;2929;50.810;8.342;2023-08-01T10:31:09;16.70;99.90
5806;DHT22;2929;50.810;8.342;2023-08-01T10:33:37;16.70;99.90
5806;DHT22;2929;50.810;8.342;2023-08-01T10:36:13;16.80;99.90
5806;DHT22;2929;50.810;8.342;2023-08-01T10:38:46;16.70;99.90
5806;DHT22;2929;50.810;8.342;2023-08-01T10:41:20;16.70;99.90
5806;DHT22;2929;50.810;8.342;2023-08-01T10:43:47;16.70;99.90
5806;DHT22;2929;50.810;8.342;2023-08-01T10:46:14;16.80;99.90
5806;DHT22;2929;50.810;8.342;2023-08-01T10:48:51;16.90;99.90
5806;DHT22;2929;50.810;8.342;2023-08-01T10:51:19;17.30;99.90
5806;DHT22;2929;50.810;8.342;2023-08-01T10:53:46;17.70;99.90
5806;DHT22;2929;50.810;8.342;2023-08-01T10:56:19;17.70;99.90
5806;DHT22;2929;50.810;8.342;2023-08-01T10:58:47;17.80;99.90
5806;DHT22;2929;50.810;8.342;2023-08-01T11:01:14;17.70;99.90
5806;DHT22;2929;50.810;8.342;2023-08-01T11:03:41;17.60;99.90
5806;DHT22;2929;50.810;8.342;2023-08-01T11:06:08;17.50;99.90
5806;DHT22;2929;50.810;8.342;2023-08-01T11:08:36;17.50;99.90
5806;DHT22;2929;50.810;8.342;2023-08-01T11:11:05;17.70;99.90
5806;DHT22;2929;50.810;8.342;2023-08-01T11:13:33;17.80;99.90
5806;DHT22;2929;50.810;8.342;2023-08-01T11:16:02;17.80;99.90
5806;DHT22;2929;50.810;8.342;2023-08-01T11:18:30;17.90;99.90
5806;DHT22;2929;50.810;8.342;2023-08-01T11:20:57;18.10;99.90
5806;DHT22;2929;50.810;8.342;2023-08-01T11:23:30;18.30;99.90
5806;DHT22;2929;50.810;8.342;2023-08-01T11:25:57;18.60;99.90
5806;DHT22;2929;50.810;8.342;2023-08-01T11:28:24;19.00;99.90
5806;DHT22;2929;50.810;8.342;2023-08-01T11:30:52;18.80;99.90
5806;DHT22;2929;50.810;8.342;2023-08-01T11:33:21;18.70;99.90
5806;DHT22;2929;50.810;8.342;2023-08-01T11:35:50;18.60;99.90
5806;DHT22;2929;50.810;8.342;2023-08-01T11:38:19;18.30;99.90
5806;DHT22;2929;50.810;8.342;2023-08-01T11:40:46;18.40;99.90
5806;DHT22;2929;50.810;8.342;2023-08-01T11:43:14;18.70;99.90
5806;DHT22;2929;50.810;8.342;2023-08-01T11:45:49;19.10;99.90
5806;DHT22;2929;50.810;8.342;2023-08-01T11:48:17;19.30;99.90
5806;DHT22;2929;50.810;8.342;2023-08-01T13:27:12;19.70;99.90
5806;DHT22;2929;50.810;8.342;2023-08-01T13:29:41;19.60;99.90
5806;DHT22;2929;50.810;8.342;2023-08-01T13:32:08;19.30;99.90
5806;DHT22;2929;50.810;8.342;2023-08-01T13:34:35;19.00;99.90
5806;DHT22;2929;50.810;8.342;2023-08-01T13:37:02;18.80;99.90
5806;DHT22;2929;50.810;8.342;2023-08-01T13:39:28;18.70;99.90
5806;DHT22;2929;50.810;8.342;2023-08-01T13:41:55;19.40;99.90
5806;DHT22;2929;50.810;8.342;2023-08-01T13:44:22;20.10;99.90
5806;DHT22;2929;50.810;8.342;2023-08-01T13:46:50;20.70;99.90
5806;DHT22;2929;50.810;8.342;2023-08-01T13:49:18;21.50;99.90
5806;DHT22;2929;50.810;8.342;2023-08-01T13:51:45;21.70;99.90
5806;DHT22;2929;50.810;8.342;2023-08-01T13:54:12;22.00;99.90
5806;DHT22;2929;50.810;8.342;2023-08-01T13:56:39;21.80;99.90
5806;DHT22;2929;50.810;8.342;2023-08-01T13:59:06;22.30;99.90
5806;DHT22;2929;50.810;8.342;2023-08-01T14:01:33;22.40;99.90
5806;DHT22;2929;50.810;8.342;2023-08-01T14:04:02;22.40;99.90
5806;DHT22;2929;50.810;8.342;2023-08-01T14:06:29;21.70;99.90
5806;DHT22;2929;50.810;8.342;2023-08-01T14:08:56;21.00;99.90
5806;DHT22;2929;50.810;8.342;2023-08-01T14:11:23;20.60;99.90
5806;DHT22;2929;50.810;8.342;2023-08-01T14:13:50;20.20;99.90
5806;DHT22;2929;50.810;8.342;2023-08-01T14:16:17;19.90;99.90
5806;DHT22;2929;50.810;8.342;2023-08-01T14:18:44;19.30;99.90
5806;DHT22;2929;50.810;8.342;2023-08-01T14:21:12;19.00;99.90
5806;DHT22;2929;50.810;8.342;2023-08-01T14:23:39;18.60;99.90
5806;DHT22;2929;50.810;8.342;2023-08-01T14:26:07;18.40;99.90
5806;DHT22;2929;50.810;8.342;2023-08-01T14:28:34;18.30;99.90
5806;DHT22;2929;50.810;8.342;2023-08-01T14:31:01;18.20;99.90
5806;DHT22;2929;50.810;8.342;2023-08-01T14:33:28;18.60;99.90
5806;DHT22;2929;50.810;8.342;2023-08-01T14:35:56;18.90;99.90
5806;DHT22;2929;50.810;8.342;2023-08-01T14:38:24;18.80;99.90
5806;DHT22;2929;50.810;8.342;2023-08-01T14:40:52;18.90;99.90
5806;DHT22;2929;50.810;8.342;2023-08-01T14:43:19;19.20;99.90
5806;DHT22;2929;50.810;8.342;2023-08-01T14:45:46;19.90;99.90
5806;DHT22;2929;50.810;8.342;2023-08-01T14:48:13;20.50;99.90
5806;DHT22;2929;50.810;8.342;2023-08-01T14:50:40;21.50;99.90
5806;DHT22;2929;50.810;8.342;2023-08-01T14:53:07;21.50;99.90
